Decoded Metar for KFSM (FORT SMITH in AR, USA) (IATA:FSM) | Meteo·Mobile Aviation Weather
aviador You're here:

KFSM Decoded Metar

FORT SMITH in AR, USA
Report Time2019-06-17 13:53:00
UTC Time2019-06-17 14:44:46
Flight Rules vfr VFR
Wind280° at 03 kt
W.Decomp.*RWY 25: 2.7 kt HW 1.3 kt RCW
RWY 19: 0.3 kt HW 3.0 kt RCW
Visibility9999 m
Phenomena:N/A
Clouds:Overcast 100 Hf
Expected CloudBase > 1,600 ft AGL from Temp-Dew spread
Ceiling10,000 ft
Temp23°C (ISA +9)
Dew Point19°C (78% RH)
QNH1013 hPa
Density Alt1,788 ft
Elevation459 ft
Report Wrong Elevation
Raw Report
KFSM 171353Z 28003KT 10SM OVC100 23/19 A2990 RMK AO2 SLP121
T02280189=

Extra information for KFSM:More info

Metar Taf Metar & Taf Last 4 Metars F.Rules Stats Wind Profile Meteogram Temp Stats Airport Information Weather charts Add Link Nearby VenuesMetar ALERT Operation Metar Decoded Social comments

AIRNAV info for KFSM